sensor_id;sensor_type;location;lat;lon;timestamp;P1;durP1;ratioP1;P2;durP2;ratioP2
10535;SDS011;5316;49.538;8.352;2023-10-13T00:01:06;9.87;;;6.63;;
10535;SDS011;5316;49.538;8.352;2023-10-13T00:03:36;10.83;;;6.57;;
10535;SDS011;5316;49.538;8.352;2023-10-13T00:06:06;13.47;;;6.67;;
10535;SDS011;5316;49.538;8.352;2023-10-13T00:08:33;9.47;;;6.73;;
10535;SDS011;5316;49.538;8.352;2023-10-13T00:11:01;10.23;;;6.80;;
10535;SDS011;5316;49.538;8.352;2023-10-13T00:13:29;10.37;;;6.87;;
10535;SDS011;5316;49.538;8.352;2023-10-13T00:16:05;12.60;;;6.73;;
10535;SDS011;5316;49.538;8.352;2023-10-13T00:18:35;10.83;;;6.90;;
10535;SDS011;5316;49.538;8.352;2023-10-13T00:21:08;11.83;;;6.93;;
10535;SDS011;5316;49.538;8.352;2023-10-13T00:23:38;11.83;;;6.30;;
10535;SDS011;5316;49.538;8.352;2023-10-13T00:26:08;7.87;;;6.37;;
10535;SDS011;5316;49.538;8.352;2023-10-13T00:28:35;11.67;;;7.10;;
10535;SDS011;5316;49.538;8.352;2023-10-13T00:31:09;9.23;;;6.63;;
10535;SDS011;5316;49.538;8.352;2023-10-13T00:33:37;10.33;;;6.93;;
10535;SDS011;5316;49.538;8.352;2023-10-13T00:36:04;10.57;;;6.60;;
10535;SDS011;5316;49.538;8.352;2023-10-13T00:38:34;9.17;;;6.67;;
10535;SDS011;5316;49.538;8.352;2023-10-13T00:41:02;10.50;;;6.70;;
10535;SDS011;5316;49.538;8.352;2023-10-13T00:43:43;7.77;;;6.47;;
10535;SDS011;5316;49.538;8.352;2023-10-13T00:46:10;10.60;;;7.27;;
10535;SDS011;5316;49.538;8.352;2023-10-13T00:48:40;9.27;;;6.53;;
10535;SDS011;5316;49.538;8.352;2023-10-13T00:51:08;8.90;;;6.50;;
10535;SDS011;5316;49.538;8.352;2023-10-13T00:53:45;11.80;;;7.00;;
10535;SDS011;5316;49.538;8.352;2023-10-13T00:56:13;8.57;;;6.47;;
10535;SDS011;5316;49.538;8.352;2023-10-13T00:58:52;10.57;;;7.30;;
10535;SDS011;5316;49.538;8.352;2023-10-13T01:01:18;9.17;;;6.90;;
10535;SDS011;5316;49.538;8.352;2023-10-13T01:03:48;8.20;;;6.50;;
10535;SDS011;5316;49.538;8.352;2023-10-13T01:06:16;10.77;;;6.40;;
10535;SDS011;5316;49.538;8.352;2023-10-13T01:08:46;10.87;;;6.57;;
10535;SDS011;5316;49.538;8.352;2023-10-13T01:11:16;7.63;;;5.70;;
10535;SDS011;5316;49.538;8.352;2023-10-13T01:13:48;8.67;;;6.47;;
10535;SDS011;5316;49.538;8.352;2023-10-13T01:16:16;9.90;;;6.07;;
10535;SDS011;5316;49.538;8.352;2023-10-13T01:18:46;9.77;;;5.90;;
10535;SDS011;5316;49.538;8.352;2023-10-13T01:21:13;9.60;;;6.10;;
10535;SDS011;5316;49.538;8.352;2023-10-13T01:23:46;10.23;;;6.77;;
10535;SDS011;5316;49.538;8.352;2023-10-13T01:26:13;8.17;;;6.43;;
10535;SDS011;5316;49.538;8.352;2023-10-13T01:28:47;13.13;;;6.30;;
10535;SDS011;5316;49.538;8.352;2023-10-13T01:31:15;10.37;;;6.53;;
10535;SDS011;5316;49.538;8.352;2023-10-13T01:33:50;13.27;;;6.73;;
10535;SDS011;5316;49.538;8.352;2023-10-13T01:36:20;11.57;;;6.83;;
10535;SDS011;5316;49.538;8.352;2023-10-13T01:38:48;11.23;;;7.90;;
10535;SDS011;5316;49.538;8.352;2023-10-13T01:41:16;11.60;;;7.23;;
10535;SDS011;5316;49.538;8.352;2023-10-13T01:43:43;9.37;;;6.80;;
10535;SDS011;5316;49.538;8.352;2023-10-13T01:46:10;12.97;;;6.27;;
10535;SDS011;5316;49.538;8.352;2023-10-13T01:48:38;12.07;;;6.80;;
10535;SDS011;5316;49.538;8.352;2023-10-13T01:51:06;10.23;;;6.67;;
10535;SDS011;5316;49.538;8.352;2023-10-13T01:53:35;8.83;;;6.60;;
10535;SDS011;5316;49.538;8.352;2023-10-13T01:56:04;9.77;;;6.37;;
10535;SDS011;5316;49.538;8.352;2023-10-13T01:58:35;10.60;;;6.50;;
10535;SDS011;5316;49.538;8.352;2023-10-13T02:01:03;10.93;;;6.03;;
10535;SDS011;5316;49.538;8.352;2023-10-13T02:03:29;7.73;;;6.30;;
10535;SDS011;5316;49.538;8.352;2023-10-13T02:05:56;10.47;;;6.90;;
10535;SDS011;5316;49.538;8.352;2023-10-13T02:08:28;12.37;;;7.07;;
10535;SDS011;5316;49.538;8.352;2023-10-13T02:10:55;9.37;;;6.60;;
10535;SDS011;5316;49.538;8.352;2023-10-13T02:13:24;11.53;;;6.87;;
10535;SDS011;5316;49.538;8.352;2023-10-13T02:15:55;8.07;;;6.47;;
10535;SDS011;5316;49.538;8.352;2023-10-13T02:18:23;12.23;;;6.40;;
10535;SDS011;5316;49.538;8.352;2023-10-13T02:20:54;12.03;;;6.67;;
10535;SDS011;5316;49.538;8.352;2023-10-13T02:23:21;11.33;;;6.00;;
10535;SDS011;5316;49.538;8.352;2023-10-13T02:25:49;11.33;;;6.67;;
10535;SDS011;5316;49.538;8.352;2023-10-13T02:28:26;8.83;;;6.07;;
10535;SDS011;5316;49.538;8.352;2023-10-13T02:31:01;13.47;;;6.60;;
10535;SDS011;5316;49.538;8.352;2023-10-13T02:33:28;10.77;;;6.80;;
10535;SDS011;5316;49.538;8.352;2023-10-13T02:35:56;9.50;;;6.20;;
10535;SDS011;5316;49.538;8.352;2023-10-13T02:38:22;8.17;;;5.97;;
10535;SDS011;5316;49.538;8.352;2023-10-13T02:40:55;10.57;;;7.03;;
10535;SDS011;5316;49.538;8.352;2023-10-13T02:43:21;9.97;;;6.10;;
10535;SDS011;5316;49.538;8.352;2023-10-13T02:45:53;14.57;;;6.73;;
10535;SDS011;5316;49.538;8.352;2023-10-13T02:48:23;10.53;;;6.03;;
10535;SDS011;5316;49.538;8.352;2023-10-13T02:50:56;13.03;;;6.43;;
10535;SDS011;5316;49.538;8.352;2023-10-13T02:53:22;9.67;;;5.50;;
10535;SDS011;5316;49.538;8.352;2023-10-13T02:55:50;10.10;;;5.90;;
10535;SDS011;5316;49.538;8.352;2023-10-13T02:58:17;12.57;;;6.17;;
10535;SDS011;5316;49.538;8.352;2023-10-13T03:00:43;9.67;;;5.90;;
10535;SDS011;5316;49.538;8.352;2023-10-13T03:03:11;9.20;;;5.60;;
10535;SDS011;5316;49.538;8.352;2023-10-13T03:05:39;8.40;;;5.90;;
10535;SDS011;5316;49.538;8.352;2023-10-13T03:08:07;12.37;;;6.20;;
10535;SDS011;5316;49.538;8.352;2023-10-13T03:10:36;10.67;;;6.27;;
10535;SDS011;5316;49.538;8.352;2023-10-13T03:13:05;9.50;;;5.80;;
10535;SDS011;5316;49.538;8.352;2023-10-13T03:15:33;10.80;;;6.33;;
10535;SDS011;5316;49.538;8.352;2023-10-13T03:18:00;10.60;;;5.77;;
10535;SDS011;5316;49.538;8.352;2023-10-13T03:20:28;8.77;;;5.00;;
10535;SDS011;5316;49.538;8.352;2023-10-13T03:22:57;7.83;;;5.27;;
10535;SDS011;5316;49.538;8.352;2023-10-13T03:25:24;6.67;;;5.47;;
10535;SDS011;5316;49.538;8.352;2023-10-13T03:27:54;10.53;;;5.00;;
10535;SDS011;5316;49.538;8.352;2023-10-13T03:30:30;7.70;;;5.40;;
10535;SDS011;5316;49.538;8.352;2023-10-13T03:33:01;7.07;;;5.10;;
10535;SDS011;5316;49.538;8.352;2023-10-13T03:35:33;9.13;;;5.20;;
10535;SDS011;5316;49.538;8.352;2023-10-13T03:38:05;8.43;;;5.50;;
10535;SDS011;5316;49.538;8.352;2023-10-13T03:40:39;9.63;;;5.27;;
10535;SDS011;5316;49.538;8.352;2023-10-13T03:43:07;7.50;;;4.73;;
10535;SDS011;5316;49.538;8.352;2023-10-13T03:45:35;6.10;;;4.70;;
10535;SDS011;5316;49.538;8.352;2023-10-13T03:48:04;11.20;;;5.90;;
10535;SDS011;5316;49.538;8.352;2023-10-13T03:50:36;8.70;;;5.83;;
10535;SDS011;5316;49.538;8.352;2023-10-13T03:53:11;10.17;;;5.33;;
10535;SDS011;5316;49.538;8.352;2023-10-13T03:55:38;10.37;;;4.63;;
10535;SDS011;5316;49.538;8.352;2023-10-13T03:58:13;10.77;;;4.90;;
10535;SDS011;5316;49.538;8.352;2023-10-13T04:00:41;9.07;;;4.93;;
10535;SDS011;5316;49.538;8.352;2023-10-13T04:03:08;8.37;;;4.40;;
10535;SDS011;5316;49.538;8.352;2023-10-13T04:05:36;6.67;;;5.57;;
10535;SDS011;5316;49.538;8.352;2023-10-13T04:08:10;9.33;;;4.97;;
10535;SDS011;5316;49.538;8.352;2023-10-13T04:11:08;8.40;;;4.87;;
10535;SDS011;5316;49.538;8.352;2023-10-13T04:13:52;12.83;;;7.93;;
10535;SDS011;5316;49.538;8.352;2023-10-13T04:16:37;13.23;;;6.57;;
10535;SDS011;5316;49.538;8.352;2023-10-13T04:19:15;9.70;;;4.83;;
10535;SDS011;5316;49.538;8.352;2023-10-13T04:21:49;11.20;;;5.40;;
10535;SDS011;5316;49.538;8.352;2023-10-13T04:24:39;6.40;;;4.97;;
10535;SDS011;5316;49.538;8.352;2023-10-13T04:27:25;11.30;;;4.67;;
10535;SDS011;5316;49.538;8.352;2023-10-13T04:30:19;8.77;;;5.23;;
10535;SDS011;5316;49.538;8.352;2023-10-13T04:32:52;12.17;;;8.57;;
10535;SDS011;5316;49.538;8.352;2023-10-13T04:36:01;13.97;;;8.57;;
10535;SDS011;5316;49.538;8.352;2023-10-13T04:38:40;13.50;;;9.57;;
10535;SDS011;5316;49.538;8.352;2023-10-13T04:41:21;13.80;;;8.73;;
10535;SDS011;5316;49.538;8.352;2023-10-13T04:43:48;11.60;;;6.47;;
10535;SDS011;5316;49.538;8.352;2023-10-13T04:46:30;10.17;;;5.43;;
10535;SDS011;5316;49.538;8.352;2023-10-13T04:49:19;10.57;;;5.50;;
10535;SDS011;5316;49.538;8.352;2023-10-13T04:52:01;11.53;;;5.13;;
10535;SDS011;5316;49.538;8.352;2023-10-13T04:54:40;7.57;;;5.00;;
10535;SDS011;5316;49.538;8.352;2023-10-13T04:57:10;10.97;;;5.93;;
10535;SDS011;5316;49.538;8.352;2023-10-13T04:59:57;9.37;;;5.30;;
10535;SDS011;5316;49.538;8.352;2023-10-13T05:02:51;10.70;;;5.20;;
10535;SDS011;5316;49.538;8.352;2023-10-13T05:05:35;7.10;;;5.43;;
10535;SDS011;5316;49.538;8.352;2023-10-13T05:08:34;10.33;;;5.97;;
10535;SDS011;5316;49.538;8.352;2023-10-13T05:11:19;10.33;;;5.97;;
10535;SDS011;5316;49.538;8.352;2023-10-13T05:14:04;14.13;;;7.40;;
10535;SDS011;5316;49.538;8.352;2023-10-13T05:16:48;11.83;;;6.53;;
10535;SDS011;5316;49.538;8.352;2023-10-13T05:19:43;10.77;;;7.30;;
10535;SDS011;5316;49.538;8.352;2023-10-13T05:22:28;13.03;;;8.23;;
10535;SDS011;5316;49.538;8.352;2023-10-13T05:25:12;12.10;;;6.93;;
10535;SDS011;5316;49.538;8.352;2023-10-13T05:27:57;11.97;;;7.60;;
10535;SDS011;5316;49.538;8.352;2023-10-13T05:30:42;11.67;;;8.33;;
10535;SDS011;5316;49.538;8.352;2023-10-13T05:33:26;13.13;;;7.93;;
10535;SDS011;5316;49.538;8.352;2023-10-13T05:36:10;15.03;;;9.40;;
10535;SDS011;5316;49.538;8.352;2023-10-13T05:38:55;8.27;;;7.40;;
10535;SDS011;5316;49.538;8.352;2023-10-13T05:41:39;13.27;;;6.93;;
10535;SDS011;5316;49.538;8.352;2023-10-13T05:44:25;15.07;;;7.80;;
10535;SDS011;5316;49.538;8.352;2023-10-13T05:47:18;12.27;;;6.80;;
10535;SDS011;5316;49.538;8.352;2023-10-13T05:50:11;11.67;;;7.70;;
10535;SDS011;5316;49.538;8.352;2023-10-13T05:52:54;9.90;;;6.37;;
10535;SDS011;5316;49.538;8.352;2023-10-13T05:55:38;13.97;;;8.30;;
10535;SDS011;5316;49.538;8.352;2023-10-13T05:58:23;10.27;;;6.37;;
10535;SDS011;5316;49.538;8.352;2023-10-13T06:01:12;15.67;;;6.87;;
10535;SDS011;5316;49.538;8.352;2023-10-13T06:03:57;9.47;;;5.90;;
10535;SDS011;5316;49.538;8.352;2023-10-13T06:06:41;13.30;;;6.17;;
10535;SDS011;5316;49.538;8.352;2023-10-13T06:09:25;10.50;;;6.07;;
10535;SDS011;5316;49.538;8.352;2023-10-13T06:12:11;10.13;;;6.20;;
10535;SDS011;5316;49.538;8.352;2023-10-13T06:26:05;9.27;;;6.30;;
10535;SDS011;5316;49.538;8.352;2023-10-13T06:32:29;9.30;;;5.03;;
10535;SDS011;5316;49.538;8.352;2023-10-13T06:41:53;9.80;;;5.63;;
10535;SDS011;5316;49.538;8.352;2023-10-13T06:50:58;9.33;;;5.57;;
10535;SDS011;5316;49.538;8.352;2023-10-13T06:53:57;6.77;;;5.10;;
10535;SDS011;5316;49.538;8.352;2023-10-13T06:56:52;8.20;;;5.60;;
10535;SDS011;5316;49.538;8.352;2023-10-13T07:07:51;15.73;;;8.60;;
10535;SDS011;5316;49.538;8.352;2023-10-13T07:13:15;11.57;;;7.23;;
10535;SDS011;5316;49.538;8.352;2023-10-13T07:23:21;7.33;;;5.13;;
10535;SDS011;5316;49.538;8.352;2023-10-13T07:29:40;8.80;;;5.27;;
10535;SDS011;5316;49.538;8.352;2023-10-13T07:45:49;13.77;;;7.70;;
10535;SDS011;5316;49.538;8.352;2023-10-13T07:51:21;9.20;;;5.63;;
10535;SDS011;5316;49.538;8.352;2023-10-13T07:54:21;10.47;;;4.93;;
10535;SDS011;5316;49.538;8.352;2023-10-13T07:57:28;8.67;;;4.90;;
10535;SDS011;5316;49.538;8.352;2023-10-13T08:03:59;8.37;;;4.70;;
10535;SDS011;5316;49.538;8.352;2023-10-13T08:06:53;6.07;;;4.67;;
10535;SDS011;5316;49.538;8.352;2023-10-13T08:09:51;6.73;;;4.70;;
10535;SDS011;5316;49.538;8.352;2023-10-13T08:12:56;11.17;;;4.93;;
10535;SDS011;5316;49.538;8.352;2023-10-13T08:15:50;7.03;;;4.80;;
10535;SDS011;5316;49.538;8.352;2023-10-13T08:18:49;16.03;;;8.93;;
10535;SDS011;5316;49.538;8.352;2023-10-13T08:22:18;20.17;;;15.20;;
10535;SDS011;5316;49.538;8.352;2023-10-13T08:25:21;9.43;;;4.63;;
10535;SDS011;5316;49.538;8.352;2023-10-13T08:28:40;7.27;;;5.60;;
10535;SDS011;5316;49.538;8.352;2023-10-13T08:31:27;7.70;;;5.27;;
10535;SDS011;5316;49.538;8.352;2023-10-13T08:34:17;10.20;;;7.73;;
10535;SDS011;5316;49.538;8.352;2023-10-13T08:37:14;9.60;;;4.80;;
10535;SDS011;5316;49.538;8.352;2023-10-13T08:40:35;8.60;;;4.70;;
10535;SDS011;5316;49.538;8.352;2023-10-13T08:44:14;13.83;;;4.63;;
10535;SDS011;5316;49.538;8.352;2023-10-13T08:47:07;25.58;;;16.63;;
10535;SDS011;5316;49.538;8.352;2023-10-13T08:50:15;10.57;;;5.07;;
10535;SDS011;5316;49.538;8.352;2023-10-13T08:53:11;12.60;;;4.63;;
10535;SDS011;5316;49.538;8.352;2023-10-13T08:56:12;12.80;;;5.07;;
10535;SDS011;5316;49.538;8.352;2023-10-13T08:59:04;8.23;;;4.20;;
10535;SDS011;5316;49.538;8.352;2023-10-13T09:02:18;5.38;;;3.78;;
10535;SDS011;5316;49.538;8.352;2023-10-13T09:05:42;7.93;;;4.00;;
10535;SDS011;5316;49.538;8.352;2023-10-13T09:08:33;10.63;;;4.53;;
10535;SDS011;5316;49.538;8.352;2023-10-13T09:12:10;8.85;;;4.35;;
10535;SDS011;5316;49.538;8.352;2023-10-13T09:19:11;6.60;;;3.65;;
10535;SDS011;5316;49.538;8.352;2023-10-13T09:22:20;9.68;;;4.10;;
10535;SDS011;5316;49.538;8.352;2023-10-13T09:28:02;6.53;;;3.47;;
10535;SDS011;5316;49.538;8.352;2023-10-13T09:31:02;10.10;;;4.53;;
10535;SDS011;5316;49.538;8.352;2023-10-13T09:34:44;5.13;;;3.75;;
10535;SDS011;5316;49.538;8.352;2023-10-13T09:47:36;12.13;;;6.15;;
10535;SDS011;5316;49.538;8.352;2023-10-13T09:50:38;10.30;;;4.60;;
10535;SDS011;5316;49.538;8.352;2023-10-13T09:54:13;6.13;;;4.45;;
10535;SDS011;5316;49.538;8.352;2023-10-13T10:00:49;7.03;;;4.10;;
10535;SDS011;5316;49.538;8.352;2023-10-13T10:07:23;7.55;;;4.72;;
10535;SDS011;5316;49.538;8.352;2023-10-13T10:10:41;7.30;;;3.95;;
10535;SDS011;5316;49.538;8.352;2023-10-13T10:17:24;6.13;;;3.88;;
10535;SDS011;5316;49.538;8.352;2023-10-13T10:44:50;8.07;;;3.17;;
10535;SDS011;5316;49.538;8.352;2023-10-13T10:47:52;4.85;;;3.90;;
10535;SDS011;5316;49.538;8.352;2023-10-13T10:50:51;4.78;;;3.55;;
10535;SDS011;5316;49.538;8.352;2023-10-13T10:53:19;5.05;;;3.28;;
10535;SDS011;5316;49.538;8.352;2023-10-13T10:56:03;4.05;;;3.50;;
10535;SDS011;5316;49.538;8.352;2023-10-13T10:58:33;5.93;;;3.63;;
10535;SDS011;5316;49.538;8.352;2023-10-13T11:01:10;4.53;;;3.28;;
10535;SDS011;5316;49.538;8.352;2023-10-13T11:03:38;8.70;;;3.33;;
10535;SDS011;5316;49.538;8.352;2023-10-13T11:06:07;4.60;;;3.30;;
10535;SDS011;5316;49.538;8.352;2023-10-13T11:08:42;5.05;;;3.55;;
10535;SDS011;5316;49.538;8.352;2023-10-13T11:11:16;6.22;;;3.33;;
10535;SDS011;5316;49.538;8.352;2023-10-13T11:13:44;6.13;;;3.08;;
10535;SDS011;5316;49.538;8.352;2023-10-13T11:16:20;5.57;;;3.35;;
10535;SDS011;5316;49.538;8.352;2023-10-13T11:18:59;7.13;;;3.85;;
10535;SDS011;5316;49.538;8.352;2023-10-13T11:21:28;3.50;;;2.90;;
10535;SDS011;5316;49.538;8.352;2023-10-13T11:23:56;6.25;;;3.67;;
10535;SDS011;5316;49.538;8.352;2023-10-13T11:26:32;5.72;;;3.17;;
10535;SDS011;5316;49.538;8.352;2023-10-13T11:28:59;5.78;;;3.72;;
10535;SDS011;5316;49.538;8.352;2023-10-13T11:31:31;4.28;;;3.30;;
10535;SDS011;5316;49.538;8.352;2023-10-13T11:33:58;6.15;;;3.33;;
10535;SDS011;5316;49.538;8.352;2023-10-13T11:36:27;5.30;;;3.03;;
10535;SDS011;5316;49.538;8.352;2023-10-13T11:38:58;4.00;;;3.15;;
10535;SDS011;5316;49.538;8.352;2023-10-13T11:41:27;4.68;;;3.00;;
10535;SDS011;5316;49.538;8.352;2023-10-13T11:43:59;4.47;;;3.60;;
10535;SDS011;5316;49.538;8.352;2023-10-13T11:46:39;3.53;;;2.80;;
10535;SDS011;5316;49.538;8.352;2023-10-13T11:49:23;7.68;;;2.97;;
10535;SDS011;5316;49.538;8.352;2023-10-13T11:52:02;4.65;;;3.55;;
10535;SDS011;5316;49.538;8.352;2023-10-13T11:54:42;5.97;;;3.35;;
10535;SDS011;5316;49.538;8.352;2023-10-13T11:57:09;4.15;;;3.17;;
10535;SDS011;5316;49.538;8.352;2023-10-13T11:59:35;6.22;;;3.40;;
10535;SDS011;5316;49.538;8.352;2023-10-13T12:02:11;5.85;;;3.55;;
10535;SDS011;5316;49.538;8.352;2023-10-13T12:04:52;8.27;;;3.20;;
10535;SDS011;5316;49.538;8.352;2023-10-13T12:07:20;4.32;;;3.10;;
10535;SDS011;5316;49.538;8.352;2023-10-13T12:09:52;5.20;;;3.42;;
10535;SDS011;5316;49.538;8.352;2023-10-13T12:12:28;7.00;;;4.00;;
10535;SDS011;5316;49.538;8.352;2023-10-13T12:14:57;6.95;;;3.25;;
10535;SDS011;5316;49.538;8.352;2023-10-13T12:17:35;4.93;;;3.05;;
10535;SDS011;5316;49.538;8.352;2023-10-13T12:20:05;4.53;;;3.13;;
10535;SDS011;5316;49.538;8.352;2023-10-13T12:22:35;4.78;;;3.00;;
10535;SDS011;5316;49.538;8.352;2023-10-13T12:25:05;6.38;;;2.95;;
10535;SDS011;5316;49.538;8.352;2023-10-13T12:27:44;3.70;;;3.20;;
10535;SDS011;5316;49.538;8.352;2023-10-13T12:30:13;4.70;;;3.08;;
10535;SDS011;5316;49.538;8.352;2023-10-13T12:32:48;7.80;;;3.15;;
10535;SDS011;5316;49.538;8.352;2023-10-13T12:35:23;7.20;;;3.25;;
10535;SDS011;5316;49.538;8.352;2023-10-13T12:37:55;5.32;;;3.00;;
10535;SDS011;5316;49.538;8.352;2023-10-13T12:40:30;3.83;;;3.00;;
10535;SDS011;5316;49.538;8.352;2023-10-13T12:43:15;5.45;;;2.80;;
10535;SDS011;5316;49.538;8.352;2023-10-13T12:46:01;4.80;;;3.05;;
10535;SDS011;5316;49.538;8.352;2023-10-13T12:48:47;5.20;;;3.40;;
10535;SDS011;5316;49.538;8.352;2023-10-13T12:51:29;5.05;;;3.10;;
10535;SDS011;5316;49.538;8.352;2023-10-13T12:54:15;8.07;;;2.95;;
10535;SDS011;5316;49.538;8.352;2023-10-13T12:56:45;5.47;;;2.80;;
10535;SDS011;5316;49.538;8.352;2023-10-13T12:59:11;4.07;;;2.63;;
10535;SDS011;5316;49.538;8.352;2023-10-13T13:01:39;6.00;;;3.20;;
10535;SDS011;5316;49.538;8.352;2023-10-13T13:04:09;5.05;;;3.03;;
10535;SDS011;5316;49.538;8.352;2023-10-13T13:06:43;4.88;;;2.97;;
10535;SDS011;5316;49.538;8.352;2023-10-13T13:09:10;7.22;;;3.28;;
10535;SDS011;5316;49.538;8.352;2023-10-13T13:11:37;3.13;;;2.83;;
10535;SDS011;5316;49.538;8.352;2023-10-13T13:14:05;3.13;;;2.90;;
10535;SDS011;5316;49.538;8.352;2023-10-13T13:16:33;5.55;;;2.88;;
10535;SDS011;5316;49.538;8.352;2023-10-13T13:19:02;3.97;;;2.30;;
10535;SDS011;5316;49.538;8.352;2023-10-13T13:21:36;6.53;;;2.47;;
10535;SDS011;5316;49.538;8.352;2023-10-13T13:24:03;4.72;;;2.40;;
10535;SDS011;5316;49.538;8.352;2023-10-13T13:26:35;3.97;;;2.45;;
10535;SDS011;5316;49.538;8.352;2023-10-13T13:29:05;3.60;;;2.38;;
10535;SDS011;5316;49.538;8.352;2023-10-13T13:31:34;7.53;;;2.50;;
10535;SDS011;5316;49.538;8.352;2023-10-13T13:34:06;6.90;;;2.65;;
10535;SDS011;5316;49.538;8.352;2023-10-13T13:36:34;2.95;;;2.10;;
10535;SDS011;5316;49.538;8.352;2023-10-13T13:39:03;9.57;;;2.63;;
10535;SDS011;5316;49.538;8.352;2023-10-13T13:41:32;5.15;;;3.63;;
10535;SDS011;5316;49.538;8.352;2023-10-13T13:43:58;6.20;;;2.65;;
10535;SDS011;5316;49.538;8.352;2023-10-13T13:46:38;6.38;;;2.22;;
10535;SDS011;5316;49.538;8.352;2023-10-13T13:49:07;6.55;;;2.65;;
10535;SDS011;5316;49.538;8.352;2023-10-13T13:55:24;6.45;;;2.60;;
10535;SDS011;5316;49.538;8.352;2023-10-13T14:01:58;5.45;;;2.63;;
10535;SDS011;5316;49.538;8.352;2023-10-13T14:08:53;6.35;;;2.72;;
10535;SDS011;5316;49.538;8.352;2023-10-13T14:22:39;4.65;;;2.58;;
10535;SDS011;5316;49.538;8.352;2023-10-13T14:25:28;6.63;;;3.00;;
10535;SDS011;5316;49.538;8.352;2023-10-13T14:35:37;6.35;;;3.08;;
10535;SDS011;5316;49.538;8.352;2023-10-13T14:56:22;3.97;;;2.42;;
10535;SDS011;5316;49.538;8.352;2023-10-13T14:58:50;5.82;;;2.67;;
10535;SDS011;5316;49.538;8.352;2023-10-13T15:01:18;11.32;;;7.70;;
10535;SDS011;5316;49.538;8.352;2023-10-13T15:03:46;8.57;;;2.90;;
10535;SDS011;5316;49.538;8.352;2023-10-13T15:06:16;3.33;;;3.03;;
10535;SDS011;5316;49.538;8.352;2023-10-13T15:08:43;4.93;;;3.05;;
10535;SDS011;5316;49.538;8.352;2023-10-13T15:11:12;8.95;;;3.47;;
10535;SDS011;5316;49.538;8.352;2023-10-13T15:13:40;7.32;;;2.65;;
10535;SDS011;5316;49.538;8.352;2023-10-13T15:16:16;7.53;;;2.80;;
10535;SDS011;5316;49.538;8.352;2023-10-13T15:18:44;7.28;;;3.08;;
10535;SDS011;5316;49.538;8.352;2023-10-13T15:21:11;6.07;;;2.80;;
10535;SDS011;5316;49.538;8.352;2023-10-13T15:23:44;7.07;;;2.53;;
10535;SDS011;5316;49.538;8.352;2023-10-13T15:26:11;10.20;;;2.50;;
10535;SDS011;5316;49.538;8.352;2023-10-13T15:28:40;6.78;;;2.65;;
10535;SDS011;5316;49.538;8.352;2023-10-13T15:31:13;7.85;;;3.15;;
10535;SDS011;5316;49.538;8.352;2023-10-13T15:33:51;6.90;;;2.90;;
10535;SDS011;5316;49.538;8.352;2023-10-13T15:36:19;6.80;;;3.05;;
10535;SDS011;5316;49.538;8.352;2023-10-13T15:38:48;5.28;;;2.72;;
10535;SDS011;5316;49.538;8.352;2023-10-13T15:41:20;6.32;;;2.45;;
10535;SDS011;5316;49.538;8.352;2023-10-13T15:43:49;5.97;;;2.72;;
10535;SDS011;5316;49.538;8.352;2023-10-13T15:46:17;7.03;;;2.60;;
10535;SDS011;5316;49.538;8.352;2023-10-13T15:48:45;5.55;;;2.50;;
10535;SDS011;5316;49.538;8.352;2023-10-13T15:51:13;7.38;;;2.40;;
10535;SDS011;5316;49.538;8.352;2023-10-13T15:53:40;5.28;;;2.58;;
10535;SDS011;5316;49.538;8.352;2023-10-13T15:56:08;14.15;;;8.98;;
10535;SDS011;5316;49.538;8.352;2023-10-13T15:58:37;13.13;;;8.27;;
10535;SDS011;5316;49.538;8.352;2023-10-13T16:01:06;10.18;;;2.65;;
10535;SDS011;5316;49.538;8.352;2023-10-13T16:03:34;7.20;;;2.67;;
10535;SDS011;5316;49.538;8.352;2023-10-13T16:06:01;8.93;;;3.13;;
10535;SDS011;5316;49.538;8.352;2023-10-13T16:08:34;7.22;;;2.65;;
10535;SDS011;5316;49.538;8.352;2023-10-13T16:11:03;8.68;;;3.35;;
10535;SDS011;5316;49.538;8.352;2023-10-13T16:13:32;10.43;;;3.13;;
10535;SDS011;5316;49.538;8.352;2023-10-13T16:16:01;6.68;;;2.53;;
10535;SDS011;5316;49.538;8.352;2023-10-13T16:18:29;10.65;;;3.88;;
10535;SDS011;5316;49.538;8.352;2023-10-13T16:20:57;12.35;;;4.10;;
10535;SDS011;5316;49.538;8.352;2023-10-13T16:23:25;14.95;;;7.72;;
10535;SDS011;5316;49.538;8.352;2023-10-13T16:25:53;9.52;;;3.00;;
10535;SDS011;5316;49.538;8.352;2023-10-13T16:28:22;11.00;;;2.95;;
10535;SDS011;5316;49.538;8.352;2023-10-13T16:30:49;9.10;;;3.22;;
10535;SDS011;5316;49.538;8.352;2023-10-13T16:33:18;17.13;;;6.25;;
10535;SDS011;5316;49.538;8.352;2023-10-13T16:35:46;12.88;;;3.83;;
10535;SDS011;5316;49.538;8.352;2023-10-13T16:38:15;9.95;;;2.75;;
10535;SDS011;5316;49.538;8.352;2023-10-13T16:40:41;8.40;;;3.10;;
10535;SDS011;5316;49.538;8.352;2023-10-13T16:43:12;13.05;;;3.25;;
10535;SDS011;5316;49.538;8.352;2023-10-13T16:45:38;10.18;;;2.67;;
10535;SDS011;5316;49.538;8.352;2023-10-13T16:48:12;7.70;;;2.83;;
10535;SDS011;5316;49.538;8.352;2023-10-13T16:50:39;7.25;;;2.40;;
10535;SDS011;5316;49.538;8.352;2023-10-13T16:53:08;7.78;;;2.47;;
10535;SDS011;5316;49.538;8.352;2023-10-13T16:55:35;9.20;;;2.97;;
10535;SDS011;5316;49.538;8.352;2023-10-13T16:58:06;7.20;;;2.47;;
10535;SDS011;5316;49.538;8.352;2023-10-13T17:00:35;6.68;;;3.63;;
10535;SDS011;5316;49.538;8.352;2023-10-13T17:03:02;6.38;;;3.15;;
10535;SDS011;5316;49.538;8.352;2023-10-13T17:05:37;6.72;;;2.83;;
10535;SDS011;5316;49.538;8.352;2023-10-13T17:08:05;9.60;;;2.70;;
10535;SDS011;5316;49.538;8.352;2023-10-13T17:10:34;9.20;;;2.75;;
10535;SDS011;5316;49.538;8.352;2023-10-13T17:13:01;12.60;;;6.70;;
10535;SDS011;5316;49.538;8.352;2023-10-13T17:15:29;7.80;;;2.90;;
10535;SDS011;5316;49.538;8.352;2023-10-13T17:17:58;4.82;;;2.60;;
10535;SDS011;5316;49.538;8.352;2023-10-13T17:20:24;8.48;;;2.78;;
10535;SDS011;5316;49.538;8.352;2023-10-13T17:22:51;9.60;;;2.88;;
10535;SDS011;5316;49.538;8.352;2023-10-13T17:25:21;14.85;;;3.30;;
10535;SDS011;5316;49.538;8.352;2023-10-13T17:27:49;10.15;;;3.05;;
10535;SDS011;5316;49.538;8.352;2023-10-13T17:30:17;8.27;;;2.88;;
10535;SDS011;5316;49.538;8.352;2023-10-13T17:32:44;6.65;;;2.92;;
10535;SDS011;5316;49.538;8.352;2023-10-13T17:35:11;6.97;;;2.70;;
10535;SDS011;5316;49.538;8.352;2023-10-13T17:37:38;5.53;;;2.78;;
10535;SDS011;5316;49.538;8.352;2023-10-13T17:40:08;9.65;;;3.47;;
10535;SDS011;5316;49.538;8.352;2023-10-13T17:42:40;5.97;;;3.00;;
10535;SDS011;5316;49.538;8.352;2023-10-13T17:45:09;5.78;;;2.50;;
10535;SDS011;5316;49.538;8.352;2023-10-13T17:47:36;5.63;;;2.30;;
10535;SDS011;5316;49.538;8.352;2023-10-13T17:50:03;9.98;;;5.78;;
10535;SDS011;5316;49.538;8.352;2023-10-13T17:52:32;22.13;;;13.13;;
10535;SDS011;5316;49.538;8.352;2023-10-13T17:55:02;7.13;;;2.60;;
10535;SDS011;5316;49.538;8.352;2023-10-13T17:57:31;7.07;;;2.60;;
10535;SDS011;5316;49.538;8.352;2023-10-13T17:59:58;3.83;;;1.90;;
10535;SDS011;5316;49.538;8.352;2023-10-13T18:02:28;10.07;;;2.83;;
10535;SDS011;5316;49.538;8.352;2023-10-13T18:04:56;10.27;;;2.42;;
10535;SDS011;5316;49.538;8.352;2023-10-13T18:07:22;11.15;;;4.45;;
10535;SDS011;5316;49.538;8.352;2023-10-13T18:09:51;3.85;;;2.28;;
10535;SDS011;5316;49.538;8.352;2023-10-13T18:12:20;4.28;;;2.30;;
10535;SDS011;5316;49.538;8.352;2023-10-13T18:14:47;5.43;;;2.72;;
10535;SDS011;5316;49.538;8.352;2023-10-13T18:17:15;2.67;;;2.13;;
10535;SDS011;5316;49.538;8.352;2023-10-13T18:19:48;7.30;;;3.40;;
10535;SDS011;5316;49.538;8.352;2023-10-13T18:22:14;5.25;;;2.30;;
10535;SDS011;5316;49.538;8.352;2023-10-13T18:24:41;3.38;;;1.90;;
10535;SDS011;5316;49.538;8.352;2023-10-13T18:27:09;6.63;;;1.98;;
10535;SDS011;5316;49.538;8.352;2023-10-13T18:29:35;4.68;;;2.25;;
10535;SDS011;5316;49.538;8.352;2023-10-13T18:32:02;4.60;;;2.22;;
10535;SDS011;5316;49.538;8.352;2023-10-13T18:34:30;6.88;;;2.50;;
10535;SDS011;5316;49.538;8.352;2023-10-13T18:36:58;4.32;;;2.20;;
10535;SDS011;5316;49.538;8.352;2023-10-13T18:39:25;7.63;;;1.95;;
10535;SDS011;5316;49.538;8.352;2023-10-13T18:41:59;7.05;;;3.67;;